ADDS METAR Data INFO
IDs: Format: Raw Decoded Include TAF

Data at: 1333 UTC 23 Jun 2018

KFKN 231315Z AUTO 22005KT 10SM CLR 26/24 A2985 RMK AO2 T02610242
KFKN 231255Z AUTO 20006KT 10SM CLR 26/24 A2985 RMK AO2 T02550239
KFKN 231235Z AUTO 21006KT 10SM SCT120 25/24 A2985 RMK AO2 T02520241
KFKN 231215Z AUTO 20007KT 10SM SCT120 25/24 A2984 RMK AO2 T02510240
KFKN 231155Z AUTO 20006KT 10SM SCT007 SCT120 25/24 A2984 RMK AO2 70080 T02480243 10248 20215
KFKN 231135Z AUTO 18007KT 10SM SCT007 24/24 A2983 RMK AO2 T02420239
KFKN 231110Z AUTO 18007KT 10SM CLR 24/23 A2983 RMK AO2 T02360232
KFKN 231055Z AUTO 18007KT 10SM CLR 24/23 A2983 RMK AO2 T02350231
KFKN 231035Z AUTO 17005KT 10SM CLR 23/23 A2983 RMK AO2 T02310228
KFKN 231015Z AUTO 17006KT 10SM CLR 23/23 A2982 RMK AO2 T02280225
KFKN 230955Z AUTO 17005KT 10SM SCT120 23/22 A2982 RMK AO2 T02260223
KFKN 230935Z AUTO 17005KT 10SM SCT120 23/22 A2982 RMK AO2 T02260223
KFKN 230915Z AUTO 17005KT 10SM SCT120 23/22 A2982 RMK AO2 T02260222
KFKN 230855Z AUTO 17004KT 10SM CLR 22/22 A2981 RMK AO2 T02230220
KFKN 230835Z AUTO 17004KT 10SM CLR 22/22 A2981 RMK AO2 T02220220
KFKN 230815Z AUTO 16003KT 10SM CLR 22/22 A2981 RMK AO2 T02210218
KFKN 230755Z AUTO 15004KT 10SM CLR 22/22 A2981 RMK AO2 LTG DSNT S T02210218
KFKN 230735Z AUTO 17006KT 10SM CLR 22/22 A2982 RMK AO2 T02210218
KFKN 230715Z AUTO 16004KT 10SM CLR 22/22 A2983 RMK AO2 T02200216
KFKN 230655Z AUTO 16004KT 10SM CLR 22/21 A2983 RMK AO2 T02160213
KFKN 230635Z AUTO 16004KT 10SM CLR 22/21 A2983 RMK AO2 T02150212
KFKN 230615Z AUTO 00000KT 10SM CLR 22/21 A2983 RMK AO2 LTG DSNT S T02160213
KFKN 230555Z AUTO 00000KT 10SM CLR 22/21 A2984 RMK AO2 60080 T02160213 10279 20215
KFKN 230535Z AUTO 11004KT 10SM SCT034 SCT080 22/21 A2985 RMK AO2 LTG DSNT E AND SE T02150212
KFKN 230515Z AUTO 10005KT 10SM CLR 22/22 A2984 RMK AO2 LTG DSNT E THRU S T02170215
KFKN 230455Z AUTO 06005KT 10SM SCT080 BKN110 22/22 A2983 RMK AO2 P0001 T02180215 403180218
KFKN 230435Z AUTO 09005KT 10SM SCT110 22/22 A2985 RMK AO2 LTG DSNT NE AND E T02200216
KFKN 230415Z AUTO 00000KT 10SM SCT049 SCT065 BKN120 22/22 A2985 RMK AO2 LTG DSNT ALQS T02200217
KFKN 230355Z AUTO 00000KT 4SM VCTSRA SCT010 BKN049 OVC120 22/22 A2984 RMK AO2 LTG DSNT ALQS P0076 T02200216
KFKN 230335Z AUTO 28003G20KT 1 1/2SM +TSRA SCT010 BKN017 OVC035 22/22 A2987 RMK AO2 LTG DSNT ALQS P0061 T02200217
KFKN 230315Z AUTO 31007G19KT 290V350 3SM +TSRA SCT005 BKN028 OVC033 22/22 A2983 RMK AO2 LTG DSNT ALQS P0016 T02200216
KFKN 230255Z AUTO 25009G18KT 5SM -VCTSRA SCT007 BKN024 OVC075 23/22 A2983 RMK AO2 LTG DSNT ALQS P0002 60002 T02260220
KFKN 230235Z AUTO 06006KT 10SM VCTS SCT026 SCT060 BKN080 24/21 A2980 RMK AO2 LTG DSNT SW THRU NW T02390209
KFKN 230215Z AUTO 10004KT 10SM SCT026 24/21 A2980 RMK AO2 LTG DSNT W T02360209
KFKN 230155Z AUTO 08004KT 10SM SCT055 23/21 A2980 RMK AO2 T02330209
KFKN 230135Z AUTO 00000KT 10SM CLR 23/21 A2981 RMK AO2 T02330206
KFKN 230115Z AUTO 07004KT 10SM SCT050 SCT060 BKN090 23/21 A2979 RMK AO2 T02320205
KFKN 230055Z AUTO 34008KT 10SM BKN050 OVC065 24/21 A2980 RMK AO2 LTG DSNT NE AND E T02430210
KFKN 230035Z AUTO 36004KT 10SM VCTS SCT050 BKN065 26/21 A2979 RMK AO2 LTG DSNT NE AND E T02550213
KFKN 230015Z AUTO 29003KT 10SM VCTS SCT048 BKN055 BKN065 26/21 A2977 RMK AO2 LTG DSNT N AND NE T02610213
KFKN 222355Z AUTO 27011G15KT 10SM SCT075 SCT085 28/24 A2977 RMK AO2 LTG DSNT N AND NW T02800244 10318 20280
KFKN 222335Z AUTO 14005KT 10SM CLR 29/24 A2976 RMK AO2 LTG DSNT N T02900240
KFKN 222315Z AUTO 16003KT 10SM CLR 29/25 A2977 RMK AO2 LTG DSNT N AND NW T02860245
KFKN 222255Z AUTO 13003KT 10SM CLR 30/24 A2977 RMK AO2 LTG DSNT NW THRU E T02960238
KFKN 222235Z AUTO 11004KT 10SM SCT037 30/24 A2977 RMK AO2 LTG DSNT NW T03000235
KFKN 222215Z AUTO 16003KT 10SM BKN039 BKN047 BKN090 31/23 A2976 RMK AO2 LTG DSNT E AND NW T03090234
KFKN 222155Z AUTO 16005KT 10SM BKN039 BKN049 BKN065 31/23 A2976 RMK AO2 LTG DSNT SE T03080231
KFKN 222135Z AUTO 14005KT 10SM SCT039 32/23 A2976 RMK AO2 LTG DSNT E AND SE T03160231
KFKN 222115Z AUTO 15005KT 10SM SCT037 SCT046 31/23 A2976 RMK AO2 LTG DSNT E T03100230
KFKN 222055Z AUTO 16005KT 10SM SCT039 BKN046 32/23 A2977 RMK AO2 T03150228
KFKN 222035Z AUTO 17008KT 10SM BKN039 OVC045 32/23 A2978 RMK AO2 T03160229
KFKN 222015Z AUTO 19003KT 10SM SCT039 SCT046 31/23 A2979 RMK AO2 T03070229
KFKN 221955Z AUTO 22005KT 10SM SCT035 31/23 A2978 RMK AO2 T03100229
KFKN 221935Z AUTO 16005KT 10SM SCT033 31/23 A2979 RMK AO2 T03100231
KFKN 221915Z AUTO 22003KT 10SM SCT036 SCT048 30/23 A2979 RMK AO2 T03010225
KFKN 221855Z AUTO 23006KT 10SM SCT032 SCT042 SCT050 31/23 A2980 RMK AO2 T03050233
KFKN 221835Z AUTO 23006KT 10SM SCT032 SCT042 SCT050 30/23 A2981 RMK AO2 T03010228
KFKN 221815Z AUTO 22003KT 10SM SCT032 SCT047 SCT065 30/23 A2981 RMK AO2 T02990228
KFKN 221755Z AUTO 00000KT 10SM SCT029 SCT037 BKN065 30/24 A2981 RMK AO2 T03010235 10301 20237
KFKN 221735Z AUTO 24005KT 10SM SCT028 BKN038 BKN049 29/24 A2982 RMK AO2 LTG DSNT S T02920236
KFKN 221715Z AUTO 00000KT 10SM BKN024 BKN032 BKN045 29/23 A2983 RMK AO2 T02870232
KFKN 221655Z AUTO 25004KT 10SM BKN024 BKN033 BKN060 29/24 A2983 RMK AO2 T02890236
KFKN 221635Z AUTO 20004KT 10SM SCT024 BKN033 29/24 A2983 RMK AO2 T02870235
KFKN 221615Z AUTO 19006KT 10SM SCT022 BKN027 BKN033 28/24 A2983 RMK AO2 T02840236
KFKN 221555Z AUTO 18004KT 10SM SCT018 BKN024 BKN031 28/24 A2984 RMK AO2 T02750236
KFKN 221535Z AUTO 15005KT 10SM SCT014 OVC026 27/24 A2984 RMK AO2 T02730239
KFKN 221515Z AUTO 17003KT 10SM BKN012 OVC022 27/24 A2983 RMK AO2 T02670239
KFKN 221455Z AUTO 20004KT 10SM BKN012 OVC022 26/24 A2984 RMK AO2 T02630238
KFKN 221435Z AUTO 15004KT 10SM SCT012 OVC022 26/24 A2983 RMK AO2 T02620242
KFKN 221415Z AUTO 00000KT 10SM BKN012 OVC018 26/24 A2983 RMK AO2 T02580242
KFKN 221355Z AUTO 14003KT 10SM BKN010 OVC018 26/24 A2984 RMK AO2 T02550241
KFKN 221335Z AUTO 12004KT 10SM SCT008 OVC015 25/24 A2983 RMK AO2 T02510242
KFKN 221315Z AUTO 00000KT 10SM SCT008 OVC017 25/24 A2984 RMK AO2 T02500242
KFKN 221255Z AUTO 11003KT 10SM BKN006 BKN013 OVC019 24/24 A2984 RMK AO2 T02430239
KFKN 221235Z AUTO 12004KT 10SM BKN006 OVC015 24/24 A2983 RMK AO2 T02420239
KFKN 221215Z AUTO 11004KT 10SM BKN006 OVC010 24/24 A2983 RMK AO2 T02400236
KFKN 221155Z AUTO 11004KT 10SM BKN006 OVC013 24/23 A2983 RMK AO2 60177 70231 T02370234 10237 20230
KFKN 221135Z AUTO 10004KT 10SM SCT006 OVC013 24/23 A2982 RMK AO2 T02350232
KFKN 221115Z AUTO 10004KT 10SM SCT006 OVC013 23/23 A2981 RMK AO2 T02340231
KFKN 221055Z AUTO 12003KT 10SM OVC013 23/23 A2980 RMK AO2 T02320229
KFKN 221035Z AUTO 12003KT 10SM BKN013 23/23 A2979 RMK AO2 T02310227
KFKN 221015Z AUTO 14003KT 10SM SCT005 23/23 A2979 RMK AO2 T02300226
KFKN 220955Z AUTO 10003KT 10SM SCT005 23/23 A2978 RMK AO2 T02300227
KFKN 220935Z AUTO 00000KT 10SM SCT011 23/23 A2977 RMK AO2 T02300227
KFKN 220915Z AUTO 12004KT 10SM SCT011 23/23 A2977 RMK AO2 T02310229
KFKN 220855Z AUTO 13006KT 10SM -DZ SCT008 SCT020 SCT027 23/23 A2976 RMK AO2 LTG DSNT E P0106 60177 T02310228
KFKN 220835Z AUTO 12006KT 10SM -RA SCT006 SCT018 OVC027 23/23 A2977 RMK AO2 LTG DSNT E P0106 T02300227
KFKN 220815Z AUTO 03005KT 3/4SM +TSRA OVC006 23/23 A2978 RMK AO2 LTG DSNT NW THRU E P0099 T02300226
KFKN 220755Z AUTO 32003KT 1 1/4SM +TSRA BKN006 BKN011 OVC016 23/23 A2981 RMK AO2 LTG DSNT ALQS P0052 T02300227
KFKN 220735Z AUTO 05004KT 4SM +TSRA SCT016 BKN050 OVC080 23/23 A2979 RMK AO2 LTG DSNT ALQS P0006 T02340230
KFKN 220715Z AUTO 11004KT 5SM RA SCT004 BKN070 OVC085 24/23 A2978 RMK AO2 LTG DSNT SE THRU NW P0002 T02350231
KFKN 220655Z AUTO 11003KT 10SM VCTS SCT004 BKN075 OVC120 24/23 A2978 RMK AO2 LTG DSNT SE THRU NW P0013 T02350232
KFKN 220635Z AUTO 09007KT 5SM -RA BKN007 BKN031 OVC100 24/23 A2978 RMK AO2 LTG DSNT S AND W P0013 T02360232
KFKN 220615Z AUTO 00000KT 2 1/2SM +TSRA BKN005 OVC008 24/23 A2979 RMK AO2 LTG DSNT S AND W P0012 T02350231
KFKN 220555Z AUTO 00000KT 7SM OVC005 24/23 A2978 RMK AO2 LTG DSNT SE AND S 60054 T02350231 10279 20226
KFKN 220535Z AUTO 10003KT 10SM SCT005 OVC080 24/23 A2979 RMK AO2 T02350230
KFKN 220515Z AUTO 00000KT 10SM SCT050 SCT080 BKN120 23/23 A2980 RMK AO2 LTG DSNT SW AND NW T02320230
KFKN 220455Z AUTO 11003KT 10SM SCT110 23/23 A2980 RMK AO2 LTG DSNT W T02310228 403310213
KFKN 220435Z AUTO 09003KT 10SM BKN110 23/23 A2980 RMK AO2 T02300227
KFKN 220415Z AUTO 00000KT 10SM SCT110 23/23 A2980 RMK AO2 LTG DSNT SE AND W T02300226
KFKN 220355Z AUTO 09004KT 10SM SCT110 23/23 A2980 RMK AO2 LTG DSNT SE AND S T02300227
KFKN 220335Z AUTO 07004KT 10SM SCT090 BKN110 23/23 A2980 RMK AO2 LTG DSNT SE AND W T02300227
KFKN 220315Z AUTO 11003KT 10SM OVC090 23/23 A2981 RMK AO2 LTG DSNT SE THRU W T02300227
KFKN 220255Z AUTO 00000KT 7SM SCT024 SCT029 BKN090 23/23 A2982 RMK AO2 LTG DSNT SE AND SW 60054 T02300225
KFKN 220235Z AUTO 04004KT 10SM SCT010 BKN023 OVC029 23/23 A2982 RMK AO2 LTG DSNT S T02300226
KFKN 220210Z AUTO 00000KT 10SM SCT020 SCT025 OVC060 23/23 A2982 RMK AO2 LTG DSNT SE AND S T02300226
KFKN 220155Z AUTO 00000KT 10SM -VCTSDZ SCT020 BKN026 OVC070 23/23 A2982 RMK AO2 LTG DSNT N NE AND S P0008 T02300226
KFKN 220135Z AUTO 00000KT 5SM VCTSRA BKN020 OVC085 23/23 A2981 RMK AO2 LTG DSNT ALQS P0008 T02270225